sensor_id;sensor_type;location;lat;lon;timestamp;temperature;humidity
47546;DHT22;50104;52.002;4.688;2022-09-28T00:04:04;9.80;85.90
47546;DHT22;50104;52.002;4.688;2022-09-28T00:09:06;9.70;85.70
47546;DHT22;50104;52.002;4.688;2022-09-28T00:14:07;9.70;85.60
47546;DHT22;50104;52.002;4.688;2022-09-28T00:19:08;9.60;85.70
47546;DHT22;50104;52.002;4.688;2022-09-28T00:24:11;9.60;85.70
47546;DHT22;50104;52.002;4.688;2022-09-28T00:29:32;9.50;85.70
47546;DHT22;50104;52.002;4.688;2022-09-28T00:34:39;9.50;85.60
47546;DHT22;50104;52.002;4.688;2022-09-28T00:39:42;9.40;85.60
47546;DHT22;50104;52.002;4.688;2022-09-28T00:44:53;9.40;85.70
47546;DHT22;50104;52.002;4.688;2022-09-28T00:55:36;9.30;86.40
47546;DHT22;50104;52.002;4.688;2022-09-28T01:00:38;9.30;86.80
47546;DHT22;50104;52.002;4.688;2022-09-28T01:05:42;9.30;87.20
47546;DHT22;50104;52.002;4.688;2022-09-28T01:10:44;9.40;87.60
47546;DHT22;50104;52.002;4.688;2022-09-28T01:16:10;9.40;87.90
47546;DHT22;50104;52.002;4.688;2022-09-28T01:21:22;9.40;88.30
47546;DHT22;50104;52.002;4.688;2022-09-28T01:26:33;9.50;88.60
47546;DHT22;50104;52.002;4.688;2022-09-28T01:31:40;9.60;88.40
47546;DHT22;50104;52.002;4.688;2022-09-28T01:36:48;9.60;88.50
47546;DHT22;50104;52.002;4.688;2022-09-28T01:41:53;9.60;88.80
47546;DHT22;50104;52.002;4.688;2022-09-28T01:46:58;9.70;88.70
47546;DHT22;50104;52.002;4.688;2022-09-28T01:52:27;9.70;88.80
47546;DHT22;50104;52.002;4.688;2022-09-28T02:03:23;9.80;89.00
47546;DHT22;50104;52.002;4.688;2022-09-28T02:08:35;9.80;88.70
47546;DHT22;50104;52.002;4.688;2022-09-28T02:13:47;9.80;88.40
47546;DHT22;50104;52.002;4.688;2022-09-28T02:18:50;9.90;88.50
47546;DHT22;50104;52.002;4.688;2022-09-28T02:23:55;9.90;88.10
47546;DHT22;50104;52.002;4.688;2022-09-28T02:28:57;9.90;87.90
47546;DHT22;50104;52.002;4.688;2022-09-28T02:33:58;9.90;87.80
47546;DHT22;50104;52.002;4.688;2022-09-28T02:38:59;9.90;87.80
47546;DHT22;50104;52.002;4.688;2022-09-28T02:54:47;9.90;87.60
47546;DHT22;50104;52.002;4.688;2022-09-28T03:05:12;10.00;87.60
47546;DHT22;50104;52.002;4.688;2022-09-28T03:10:40;10.00;87.60
47546;DHT22;50104;52.002;4.688;2022-09-28T03:15:43;10.00;87.50
47546;DHT22;50104;52.002;4.688;2022-09-28T03:20:44;10.00;87.20
47546;DHT22;50104;52.002;4.688;2022-09-28T03:25:45;10.00;86.70
47546;DHT22;50104;52.002;4.688;2022-09-28T03:30:45;9.90;86.40
47546;DHT22;50104;52.002;4.688;2022-09-28T03:35:48;9.90;87.10
47546;DHT22;50104;52.002;4.688;2022-09-28T03:40:54;9.80;87.60
47546;DHT22;50104;52.002;4.688;2022-09-28T03:45:58;9.80;87.30
47546;DHT22;50104;52.002;4.688;2022-09-28T03:51:05;9.80;87.10
47546;DHT22;50104;52.002;4.688;2022-09-28T03:56:13;9.80;87.00
47546;DHT22;50104;52.002;4.688;2022-09-28T04:01:14;9.80;86.90
47546;DHT22;50104;52.002;4.688;2022-09-28T04:06:15;9.70;87.00
47546;DHT22;50104;52.002;4.688;2022-09-28T04:11:16;9.70;87.20
47546;DHT22;50104;52.002;4.688;2022-09-28T04:16:17;9.70;87.20
47546;DHT22;50104;52.002;4.688;2022-09-28T04:21:19;9.70;87.80
47546;DHT22;50104;52.002;4.688;2022-09-28T04:26:25;9.70;87.80
47546;DHT22;50104;52.002;4.688;2022-09-28T04:31:26;9.70;87.90
47546;DHT22;50104;52.002;4.688;2022-09-28T04:36:28;9.70;87.20
47546;DHT22;50104;52.002;4.688;2022-09-28T04:41:29;9.70;86.80
47546;DHT22;50104;52.002;4.688;2022-09-28T04:46:30;9.60;86.70
47546;DHT22;50104;52.002;4.688;2022-09-28T04:51:31;9.50;86.50
47546;DHT22;50104;52.002;4.688;2022-09-28T04:56:32;9.50;86.40
47546;DHT22;50104;52.002;4.688;2022-09-28T05:01:33;9.40;86.40
47546;DHT22;50104;52.002;4.688;2022-09-28T05:06:34;9.40;86.40
47546;DHT22;50104;52.002;4.688;2022-09-28T05:11:34;9.30;86.50
47546;DHT22;50104;52.002;4.688;2022-09-28T05:16:35;9.30;86.70
47546;DHT22;50104;52.002;4.688;2022-09-28T05:21:36;9.30;86.90
47546;DHT22;50104;52.002;4.688;2022-09-28T05:26:37;9.30;87.00
47546;DHT22;50104;52.002;4.688;2022-09-28T05:31:37;9.30;87.30
47546;DHT22;50104;52.002;4.688;2022-09-28T05:36:38;9.30;87.50
47546;DHT22;50104;52.002;4.688;2022-09-28T05:41:42;9.30;87.70
47546;DHT22;50104;52.002;4.688;2022-09-28T05:46:42;9.30;87.80
47546;DHT22;50104;52.002;4.688;2022-09-28T05:51:43;9.30;87.90
47546;DHT22;50104;52.002;4.688;2022-09-28T05:56:44;9.30;88.00
47546;DHT22;50104;52.002;4.688;2022-09-28T06:01:45;9.40;88.30
47546;DHT22;50104;52.002;4.688;2022-09-28T06:06:45;9.40;88.50
47546;DHT22;50104;52.002;4.688;2022-09-28T06:11:46;9.50;88.60
47546;DHT22;50104;52.002;4.688;2022-09-28T06:16:47;9.50;88.60
47546;DHT22;50104;52.002;4.688;2022-09-28T06:21:49;9.60;88.80
47546;DHT22;50104;52.002;4.688;2022-09-28T06:26:50;9.60;88.90
47546;DHT22;50104;52.002;4.688;2022-09-28T06:31:50;9.70;89.00
47546;DHT22;50104;52.002;4.688;2022-09-28T06:36:51;9.70;89.50
47546;DHT22;50104;52.002;4.688;2022-09-28T06:41:52;9.80;89.70
47546;DHT22;50104;52.002;4.688;2022-09-28T06:46:53;9.80;90.00
47546;DHT22;50104;52.002;4.688;2022-09-28T06:51:55;9.80;90.10
47546;DHT22;50104;52.002;4.688;2022-09-28T06:56:56;9.80;90.20
47546;DHT22;50104;52.002;4.688;2022-09-28T07:01:56;9.90;90.30
47546;DHT22;50104;52.002;4.688;2022-09-28T07:06:57;9.90;90.10
47546;DHT22;50104;52.002;4.688;2022-09-28T07:11:59;10.00;90.60
47546;DHT22;50104;52.002;4.688;2022-09-28T07:16:59;10.10;91.20
47546;DHT22;50104;52.002;4.688;2022-09-28T07:22:01;10.30;91.50
47546;DHT22;50104;52.002;4.688;2022-09-28T07:27:02;10.50;91.80
47546;DHT22;50104;52.002;4.688;2022-09-28T07:32:04;10.70;92.10
47546;DHT22;50104;52.002;4.688;2022-09-28T07:37:05;10.90;92.10
47546;DHT22;50104;52.002;4.688;2022-09-28T07:42:10;11.00;91.70
47546;DHT22;50104;52.002;4.688;2022-09-28T07:47:11;11.20;91.80
47546;DHT22;50104;52.002;4.688;2022-09-28T07:52:13;11.30;91.80
47546;DHT22;50104;52.002;4.688;2022-09-28T07:57:13;11.30;91.60
47546;DHT22;50104;52.002;4.688;2022-09-28T08:02:15;11.40;91.50
47546;DHT22;50104;52.002;4.688;2022-09-28T08:07:19;11.50;91.80
47546;DHT22;50104;52.002;4.688;2022-09-28T08:12:22;11.60;91.90
47546;DHT22;50104;52.002;4.688;2022-09-28T08:17:23;11.80;92.00
47546;DHT22;50104;52.002;4.688;2022-09-28T08:22:23;11.90;91.70
47546;DHT22;50104;52.002;4.688;2022-09-28T08:27:24;12.00;91.60
47546;DHT22;50104;52.002;4.688;2022-09-28T08:32:25;12.10;91.60
47546;DHT22;50104;52.002;4.688;2022-09-28T08:37:25;12.20;91.50
47546;DHT22;50104;52.002;4.688;2022-09-28T08:42:31;12.40;91.40
47546;DHT22;50104;52.002;4.688;2022-09-28T08:53:38;12.70;90.90
47546;DHT22;50104;52.002;4.688;2022-09-28T08:58:57;12.80;90.50
47546;DHT22;50104;52.002;4.688;2022-09-28T09:04:02;13.00;90.20
47546;DHT22;50104;52.002;4.688;2022-09-28T09:19:52;13.60;89.60
47546;DHT22;50104;52.002;4.688;2022-09-28T09:30:12;14.10;88.30
47546;DHT22;50104;52.002;4.688;2022-09-28T09:46:16;14.70;85.80
47546;DHT22;50104;52.002;4.688;2022-09-28T09:52:02;14.80;85.20
47546;DHT22;50104;52.002;4.688;2022-09-28T09:57:00;14.90;84.00
47546;DHT22;50104;52.002;4.688;2022-09-28T10:02:14;15.00;83.10
47546;DHT22;50104;52.002;4.688;2022-09-28T10:12:58;15.20;82.60
47546;DHT22;50104;52.002;4.688;2022-09-28T10:18:19;15.40;83.00
47546;DHT22;50104;52.002;4.688;2022-09-28T10:23:24;15.50;82.20
47546;DHT22;50104;52.002;4.688;2022-09-28T10:28:58;15.70;80.90
47546;DHT22;50104;52.002;4.688;2022-09-28T10:34:01;15.80;81.70
47546;DHT22;50104;52.002;4.688;2022-09-28T10:39:03;16.00;80.70
47546;DHT22;50104;52.002;4.688;2022-09-28T10:44:05;16.20;80.30
47546;DHT22;50104;52.002;4.688;2022-09-28T10:49:17;16.30;78.90
47546;DHT22;50104;52.002;4.688;2022-09-28T10:54:21;16.40;79.50
47546;DHT22;50104;52.002;4.688;2022-09-28T11:04:39;16.70;78.30
47546;DHT22;50104;52.002;4.688;2022-09-28T11:09:44;16.80;77.00
47546;DHT22;50104;52.002;4.688;2022-09-28T11:14:47;16.80;77.10
47546;DHT22;50104;52.002;4.688;2022-09-28T11:19:53;17.00;77.90
47546;DHT22;50104;52.002;4.688;2022-09-28T11:46:44;18.10;75.40
47546;DHT22;50104;52.002;4.688;2022-09-28T11:57:39;18.40;74.20
47546;DHT22;50104;52.002;4.688;2022-09-28T12:02:50;18.60;74.90
47546;DHT22;50104;52.002;4.688;2022-09-28T12:08:28;18.70;70.40
47546;DHT22;50104;52.002;4.688;2022-09-28T12:13:36;18.90;74.90
47546;DHT22;50104;52.002;4.688;2022-09-28T12:18:58;18.90;76.50
47546;DHT22;50104;52.002;4.688;2022-09-28T12:24:17;18.80;75.60
47546;DHT22;50104;52.002;4.688;2022-09-28T12:29:28;18.60;74.80
47546;DHT22;50104;52.002;4.688;2022-09-28T12:34:32;18.40;73.20
47546;DHT22;50104;52.002;4.688;2022-09-28T12:50:27;17.40;72.60
47546;DHT22;50104;52.002;4.688;2022-09-28T13:01:10;16.50;73.00
47546;DHT22;50104;52.002;4.688;2022-09-28T13:18:06;15.40;75.00
47546;DHT22;50104;52.002;4.688;2022-09-28T13:23:22;15.10;76.30
47546;DHT22;50104;52.002;4.688;2022-09-28T13:28:30;14.90;77.30
47546;DHT22;50104;52.002;4.688;2022-09-28T13:33:37;14.70;78.20
47546;DHT22;50104;52.002;4.688;2022-09-28T13:38:45;14.60;78.70
47546;DHT22;50104;52.002;4.688;2022-09-28T13:55:25;14.30;80.40
47546;DHT22;50104;52.002;4.688;2022-09-28T14:00:55;14.20;81.40
47546;DHT22;50104;52.002;4.688;2022-09-28T14:06:31;14.20;81.60
47546;DHT22;50104;52.002;4.688;2022-09-28T14:16:42;14.20;82.10
47546;DHT22;50104;52.002;4.688;2022-09-28T14:27:43;14.20;82.30
47546;DHT22;50104;52.002;4.688;2022-09-28T14:32:56;14.30;82.80
47546;DHT22;50104;52.002;4.688;2022-09-28T14:38:05;14.30;82.90
47546;DHT22;50104;52.002;4.688;2022-09-28T14:59:13;14.50;82.90
47546;DHT22;50104;52.002;4.688;2022-09-28T15:04:19;14.60;82.70
47546;DHT22;50104;52.002;4.688;2022-09-28T15:09:35;14.60;82.30
47546;DHT22;50104;52.002;4.688;2022-09-28T15:15:01;14.70;82.00
47546;DHT22;50104;52.002;4.688;2022-09-28T15:25:36;14.80;82.10
47546;DHT22;50104;52.002;4.688;2022-09-28T15:30:37;14.90;82.50
47546;DHT22;50104;52.002;4.688;2022-09-28T15:35:37;14.90;82.00
47546;DHT22;50104;52.002;4.688;2022-09-28T15:40:39;14.90;82.10
47546;DHT22;50104;52.002;4.688;2022-09-28T15:45:40;14.90;82.10
47546;DHT22;50104;52.002;4.688;2022-09-28T15:51:04;14.90;81.90
47546;DHT22;50104;52.002;4.688;2022-09-28T15:56:12;14.80;81.70
47546;DHT22;50104;52.002;4.688;2022-09-28T16:01:27;14.70;81.90
47546;DHT22;50104;52.002;4.688;2022-09-28T16:06:35;14.60;81.60
47546;DHT22;50104;52.002;4.688;2022-09-28T16:11:37;14.50;81.50
47546;DHT22;50104;52.002;4.688;2022-09-28T16:16:48;14.40;81.50
47546;DHT22;50104;52.002;4.688;2022-09-28T16:22:02;14.40;81.60
47546;DHT22;50104;52.002;4.688;2022-09-28T16:32:33;14.20;82.20
47546;DHT22;50104;52.002;4.688;2022-09-28T16:37:38;14.20;82.10
47546;DHT22;50104;52.002;4.688;2022-09-28T16:42:43;14.10;81.80
47546;DHT22;50104;52.002;4.688;2022-09-28T16:47:45;14.10;81.70
47546;DHT22;50104;52.002;4.688;2022-09-28T16:52:57;14.00;81.60
47546;DHT22;50104;52.002;4.688;2022-09-28T16:58:17;13.90;81.40
47546;DHT22;50104;52.002;4.688;2022-09-28T17:03:18;13.80;81.40
47546;DHT22;50104;52.002;4.688;2022-09-28T17:08:22;13.60;81.60
47546;DHT22;50104;52.002;4.688;2022-09-28T17:13:26;13.50;79.90
47546;DHT22;50104;52.002;4.688;2022-09-28T17:18:30;13.40;79.40
47546;DHT22;50104;52.002;4.688;2022-09-28T17:23:32;13.30;79.10
47546;DHT22;50104;52.002;4.688;2022-09-28T17:28:34;13.10;79.00
47546;DHT22;50104;52.002;4.688;2022-09-28T17:33:35;13.00;79.00
47546;DHT22;50104;52.002;4.688;2022-09-28T17:38:36;12.80;79.00
47546;DHT22;50104;52.002;4.688;2022-09-28T17:43:37;12.70;79.10
47546;DHT22;50104;52.002;4.688;2022-09-28T17:48:37;12.60;79.00
47546;DHT22;50104;52.002;4.688;2022-09-28T17:53:39;12.50;79.00
47546;DHT22;50104;52.002;4.688;2022-09-28T17:58:39;12.30;79.00
47546;DHT22;50104;52.002;4.688;2022-09-28T18:03:40;12.20;79.10
47546;DHT22;50104;52.002;4.688;2022-09-28T18:08:41;12.10;79.10
47546;DHT22;50104;52.002;4.688;2022-09-28T18:13:45;12.00;79.20
47546;DHT22;50104;52.002;4.688;2022-09-28T18:18:46;11.80;79.30
47546;DHT22;50104;52.002;4.688;2022-09-28T18:23:47;11.70;79.40
47546;DHT22;50104;52.002;4.688;2022-09-28T18:28:47;11.60;79.70
47546;DHT22;50104;52.002;4.688;2022-09-28T18:33:48;11.50;79.80
47546;DHT22;50104;52.002;4.688;2022-09-28T18:38:49;11.30;79.80
47546;DHT22;50104;52.002;4.688;2022-09-28T18:43:50;11.20;79.90
47546;DHT22;50104;52.002;4.688;2022-09-28T18:48:51;11.10;80.10
47546;DHT22;50104;52.002;4.688;2022-09-28T18:53:52;11.00;80.10
47546;DHT22;50104;52.002;4.688;2022-09-28T18:58:52;10.90;80.30
47546;DHT22;50104;52.002;4.688;2022-09-28T19:03:53;10.80;80.50
47546;DHT22;50104;52.002;4.688;2022-09-28T19:08:54;10.70;80.60
47546;DHT22;50104;52.002;4.688;2022-09-28T19:13:55;10.60;80.80
47546;DHT22;50104;52.002;4.688;2022-09-28T19:18:57;10.60;81.00
47546;DHT22;50104;52.002;4.688;2022-09-28T19:24:01;10.50;81.20
47546;DHT22;50104;52.002;4.688;2022-09-28T19:29:02;10.40;81.50
47546;DHT22;50104;52.002;4.688;2022-09-28T19:34:03;10.40;81.60
47546;DHT22;50104;52.002;4.688;2022-09-28T19:39:04;10.30;81.70
47546;DHT22;50104;52.002;4.688;2022-09-28T19:44:09;10.20;82.00
47546;DHT22;50104;52.002;4.688;2022-09-28T19:49:15;10.20;82.10
47546;DHT22;50104;52.002;4.688;2022-09-28T19:54:20;10.10;82.20
47546;DHT22;50104;52.002;4.688;2022-09-28T19:59:22;10.10;82.50
47546;DHT22;50104;52.002;4.688;2022-09-28T20:04:23;10.00;82.60
47546;DHT22;50104;52.002;4.688;2022-09-28T20:09:24;10.00;82.70
47546;DHT22;50104;52.002;4.688;2022-09-28T20:14:24;10.00;83.00
47546;DHT22;50104;52.002;4.688;2022-09-28T20:19:25;10.00;83.20
47546;DHT22;50104;52.002;4.688;2022-09-28T20:24:26;10.00;83.40
47546;DHT22;50104;52.002;4.688;2022-09-28T20:29:29;10.00;83.50
47546;DHT22;50104;52.002;4.688;2022-09-28T20:34:31;10.00;83.70
47546;DHT22;50104;52.002;4.688;2022-09-28T20:39:33;10.00;83.70
47546;DHT22;50104;52.002;4.688;2022-09-28T20:44:34;10.00;83.70
47546;DHT22;50104;52.002;4.688;2022-09-28T20:49:34;10.00;83.70
47546;DHT22;50104;52.002;4.688;2022-09-28T20:54:35;10.00;83.70
47546;DHT22;50104;52.002;4.688;2022-09-28T20:59:37;10.00;83.80
47546;DHT22;50104;52.002;4.688;2022-09-28T21:04:39;10.00;83.90
47546;DHT22;50104;52.002;4.688;2022-09-28T21:09:40;10.00;84.10
47546;DHT22;50104;52.002;4.688;2022-09-28T21:14:41;10.00;84.30
47546;DHT22;50104;52.002;4.688;2022-09-28T21:19:42;10.10;84.40
47546;DHT22;50104;52.002;4.688;2022-09-28T21:24:42;10.10;84.40
47546;DHT22;50104;52.002;4.688;2022-09-28T21:29:43;10.10;84.50
47546;DHT22;50104;52.002;4.688;2022-09-28T21:34:44;10.10;84.50
47546;DHT22;50104;52.002;4.688;2022-09-28T21:39:44;10.10;84.50
47546;DHT22;50104;52.002;4.688;2022-09-28T21:44:45;10.10;84.50
47546;DHT22;50104;52.002;4.688;2022-09-28T21:49:46;10.20;84.50
47546;DHT22;50104;52.002;4.688;2022-09-28T21:54:47;10.20;84.50
47546;DHT22;50104;52.002;4.688;2022-09-28T21:59:47;10.20;84.50
47546;DHT22;50104;52.002;4.688;2022-09-28T22:04:48;10.20;84.50
47546;DHT22;50104;52.002;4.688;2022-09-28T22:09:49;10.20;84.60
47546;DHT22;50104;52.002;4.688;2022-09-28T22:14:49;10.10;84.40
47546;DHT22;50104;52.002;4.688;2022-09-28T22:19:50;10.10;84.20
47546;DHT22;50104;52.002;4.688;2022-09-28T22:24:51;10.10;84.00
47546;DHT22;50104;52.002;4.688;2022-09-28T22:29:52;10.10;83.80
47546;DHT22;50104;52.002;4.688;2022-09-28T22:34:53;10.00;83.70
47546;DHT22;50104;52.002;4.688;2022-09-28T22:39:53;9.90;83.60
47546;DHT22;50104;52.002;4.688;2022-09-28T22:44:54;9.90;83.70
47546;DHT22;50104;52.002;4.688;2022-09-28T22:49:55;9.80;83.50
47546;DHT22;50104;52.002;4.688;2022-09-28T22:54:56;9.80;83.50
47546;DHT22;50104;52.002;4.688;2022-09-28T22:59:56;9.70;83.50
47546;DHT22;50104;52.002;4.688;2022-09-28T23:04:57;9.60;83.30
47546;DHT22;50104;52.002;4.688;2022-09-28T23:09:58;9.50;83.40
47546;DHT22;50104;52.002;4.688;2022-09-28T23:15:00;9.50;83.40
47546;DHT22;50104;52.002;4.688;2022-09-28T23:20:01;9.40;83.50
47546;DHT22;50104;52.002;4.688;2022-09-28T23:25:02;9.40;83.50
47546;DHT22;50104;52.002;4.688;2022-09-28T23:30:04;9.30;83.50
47546;DHT22;50104;52.002;4.688;2022-09-28T23:35:05;9.20;83.60
47546;DHT22;50104;52.002;4.688;2022-09-28T23:40:07;9.20;83.60
47546;DHT22;50104;52.002;4.688;2022-09-28T23:45:09;9.10;83.60
47546;DHT22;50104;52.002;4.688;2022-09-28T23:50:10;9.00;83.60
47546;DHT22;50104;52.002;4.688;2022-09-28T23:55:10;9.00;83.70
